createdAt,value
2022-08-18T00:01:00.252Z,1007.4
2022-08-18T00:02:16.655Z,1007.4
2022-08-18T00:03:31.872Z,1007.3
2022-08-18T00:04:48.061Z,1007.3
2022-08-18T00:06:04.006Z,1007.4
2022-08-18T00:07:20.426Z,1007.4
2022-08-18T00:08:36.382Z,1007.4
2022-08-18T00:09:52.792Z,1007.4
2022-08-18T00:11:08.998Z,1007.4
2022-08-18T00:12:25.169Z,1007.4
2022-08-18T00:13:41.132Z,1007.3
2022-08-18T00:14:57.554Z,1007.4
2022-08-18T00:16:13.504Z,1007.4
2022-08-18T00:17:29.687Z,1007.3
2022-08-18T00:18:46.123Z,1007.4
2022-08-18T00:20:01.321Z,1007.3
2022-08-18T00:21:17.267Z,1007.3
2022-08-18T00:22:33.446Z,1007.3
2022-08-18T00:23:49.652Z,1007.3
2022-08-18T00:25:05.829Z,1007.3
2022-08-18T00:26:22.018Z,1007.3
2022-08-18T00:27:38.449Z,1007.3
2022-08-18T00:28:54.397Z,1007.3
2022-08-18T00:30:10.810Z,1007.4
2022-08-18T00:31:26.761Z,1007.3
2022-08-18T00:32:42.947Z,1007.3
2022-08-18T00:33:59.381Z,1007.3
2022-08-18T00:35:15.572Z,1007.3
2022-08-18T00:36:30.534Z,1007.2
2022-08-18T00:37:46.967Z,1007.2
2022-08-18T00:39:02.911Z,1007.2
2022-08-18T00:40:19.344Z,1007.2
2022-08-18T00:41:35.280Z,1007.2
2022-08-18T00:42:51.472Z,1007.2
2022-08-18T00:44:07.655Z,1007.2
2022-08-18T00:45:23.835Z,1007.2
2022-08-18T00:46:40.038Z,1007.2
2022-08-18T00:47:56.454Z,1007.2
2022-08-18T00:49:12.640Z,1007.2
2022-08-18T00:50:28.836Z,1007.2
2022-08-18T00:51:44.774Z,1007.2
2022-08-18T00:52:59.976Z,1007.2
2022-08-18T00:54:16.169Z,1007.2
2022-08-18T00:55:32.600Z,1007.2
2022-08-18T00:56:48.781Z,1007.2
2022-08-18T00:58:04.973Z,1007.2
2022-08-18T00:59:20.925Z,1007.2
2022-08-18T01:00:37.349Z,1007.2
2022-08-18T01:01:53.283Z,1007.2
2022-08-18T01:03:09.721Z,1007.2
2022-08-18T01:04:25.676Z,1007.2
2022-08-18T01:05:41.849Z,1007.1
2022-08-18T01:06:58.036Z,1007.1
2022-08-18T01:08:14.219Z,1007.1
2022-08-18T01:09:29.433Z,1007.1
2022-08-18T01:10:45.862Z,1007.1
2022-08-18T01:12:02.047Z,1007.2
2022-08-18T01:13:17.992Z,1007.1
2022-08-18T01:14:34.172Z,1007.1
2022-08-18T01:15:50.618Z,1007.1
2022-08-18T01:17:06.567Z,1007.1
2022-08-18T01:18:23.007Z,1007.1
2022-08-18T01:19:39.170Z,1007.1
2022-08-18T01:20:55.368Z,1007.1
2022-08-18T01:22:11.302Z,1007.1
2022-08-18T01:23:27.739Z,1007.1
2022-08-18T01:24:43.679Z,1007.1
2022-08-18T01:25:59.123Z,1007.1
2022-08-18T01:27:15.321Z,1007.1
2022-08-18T01:28:31.508Z,1007.2
2022-08-18T01:29:47.451Z,1007.2
2022-08-18T01:31:03.882Z,1007.2
2022-08-18T01:32:19.819Z,1007.2
2022-08-18T01:33:36.251Z,1007.1
2022-08-18T01:34:52.436Z,1007.1
2022-08-18T01:36:08.630Z,1007.1
2022-08-18T01:37:24.578Z,1007.1
2022-08-18T01:38:41.005Z,1007.1
2022-08-18T01:39:56.933Z,1007.1
2022-08-18T01:41:13.119Z,1007.1
2022-08-18T01:42:28.576Z,1007.1
2022-08-18T01:43:44.524Z,1007.1
2022-08-18T01:45:00.713Z,1007.1
2022-08-18T01:46:17.146Z,1007.1
2022-08-18T01:47:33.076Z,1007.1
2022-08-18T01:48:49.523Z,1007.1
2022-08-18T01:50:04.729Z,1007
2022-08-18T01:51:20.929Z,1007.1
2022-08-18T01:52:36.860Z,1007
2022-08-18T01:53:53.048Z,1007
2022-08-18T01:55:09.218Z,1007
2022-08-18T01:56:25.412Z,1007
2022-08-18T01:57:41.860Z,1007
2022-08-18T01:58:58.037Z,1006.9
2022-08-18T02:00:13.976Z,1006.9
2022-08-18T02:01:30.413Z,1006.9
2022-08-18T02:02:46.341Z,1006.9
2022-08-18T02:04:02.801Z,1007
2022-08-18T02:05:18.734Z,1006.9
2022-08-18T02:06:33.932Z,1006.9
2022-08-18T02:07:50.115Z,1006.9
2022-08-18T02:09:06.308Z,1006.9
2022-08-18T02:10:22.482Z,1006.9
2022-08-18T02:11:38.940Z,1006.8
2022-08-18T02:12:55.134Z,1006.8
2022-08-18T02:14:11.309Z,1006.8
2022-08-18T02:15:27.238Z,1006.7
2022-08-18T02:16:43.679Z,1006.8
2022-08-18T02:17:59.607Z,1006.7
2022-08-18T02:19:16.000Z,1006.8
2022-08-18T02:20:32.251Z,1006.7
2022-08-18T02:21:48.170Z,1006.7
2022-08-18T02:23:03.379Z,1006.7
2022-08-18T02:24:19.826Z,1006.7
2022-08-18T02:25:35.763Z,1006.7
2022-08-18T02:26:52.205Z,1006.8
2022-08-18T02:28:08.397Z,1006.7
2022-08-18T02:29:24.577Z,1006.7
2022-08-18T02:30:40.511Z,1006.7
2022-08-18T02:31:56.961Z,1006.7
2022-08-18T02:33:12.877Z,1006.7
2022-08-18T02:34:29.054Z,1006.7
2022-08-18T02:35:45.507Z,1006.7
2022-08-18T02:37:01.694Z,1006.7
2022-08-18T02:38:17.882Z,1006.7
2022-08-18T02:39:33.097Z,1006.7
2022-08-18T02:40:49.022Z,1006.7
2022-08-18T02:42:05.466Z,1006.7
2022-08-18T02:43:21.663Z,1006.7
2022-08-18T02:44:37.835Z,1006.7
2022-08-18T02:45:53.758Z,1006.7
2022-08-18T02:47:09.955Z,1006.7
2022-08-18T02:48:26.133Z,1006.7
2022-08-18T02:49:42.597Z,1006.7
2022-08-18T02:50:58.782Z,1006.7
2022-08-18T02:52:14.974Z,1006.7
2022-08-18T02:53:30.894Z,1006.7
2022-08-18T02:54:47.335Z,1006.7
2022-08-18T02:56:02.275Z,1006.7
2022-08-18T02:57:18.459Z,1006.7
2022-08-18T02:58:34.651Z,1006.7
2022-08-18T02:59:51.105Z,1006.7
2022-08-18T03:01:07.037Z,1006.7
2022-08-18T03:02:23.487Z,1006.7
2022-08-18T03:03:39.399Z,1006.7
2022-08-18T03:04:55.864Z,1006.7
2022-08-18T03:06:11.768Z,1006.7
2022-08-18T03:07:27.970Z,1006.6
2022-08-18T03:08:44.415Z,1006.7
2022-08-18T03:10:00.345Z,1006.7
2022-08-18T03:11:16.520Z,1006.7
2022-08-18T03:12:31.724Z,1006.7
2022-08-18T03:13:48.188Z,1006.7
2022-08-18T03:15:04.380Z,1006.7
2022-08-18T03:16:20.291Z,1006.7
2022-08-18T03:17:36.762Z,1006.7
2022-08-18T03:18:52.675Z,1006.7
2022-08-18T03:20:08.847Z,1006.7
2022-08-18T03:21:25.316Z,1006.7
2022-08-18T03:22:41.509Z,1006.8
2022-08-18T03:23:57.406Z,1006.7
2022-08-18T03:25:13.608Z,1006.7
2022-08-18T03:26:29.794Z,1006.8
2022-08-18T03:27:45.972Z,1006.7
2022-08-18T03:29:01.453Z,1006.7
2022-08-18T03:30:17.637Z,1006.7
2022-08-18T03:31:33.561Z,1006.7
2022-08-18T03:32:50.023Z,1006.7
2022-08-18T03:34:05.926Z,1006.7
2022-08-18T03:35:22.388Z,1006.7
2022-08-18T03:36:38.582Z,1006.7
2022-08-18T03:37:54.495Z,1006.7
2022-08-18T03:39:10.687Z,1006.7
2022-08-18T03:40:27.136Z,1006.7
2022-08-18T03:41:43.056Z,1006.7
2022-08-18T03:42:59.513Z,1006.7
2022-08-18T03:44:15.698Z,1006.8
2022-08-18T03:45:30.900Z,1006.7
2022-08-18T03:46:46.827Z,1006.8
2022-08-18T03:48:03.274Z,1006.8
2022-08-18T03:49:19.191Z,1006.8
2022-08-18T03:50:35.373Z,1006.8
2022-08-18T03:51:51.840Z,1006.8
2022-08-18T03:53:08.041Z,1006.8
2022-08-18T03:54:23.933Z,1006.9
2022-08-18T03:55:40.402Z,1006.9
2022-08-18T03:56:56.310Z,1006.9
2022-08-18T03:58:12.781Z,1006.9
2022-08-18T03:59:28.964Z,1006.9
2022-08-18T04:00:45.154Z,1006.9
2022-08-18T04:02:00.089Z,1006.8
2022-08-18T04:03:16.258Z,1006.9
2022-08-18T04:04:32.457Z,1006.9
2022-08-18T04:05:48.915Z,1006.8
2022-08-18T04:07:05.118Z,1006.8
2022-08-18T04:08:21.290Z,1006.9
2022-08-18T04:09:37.199Z,1006.9
2022-08-18T04:10:53.666Z,1006.9
2022-08-18T04:12:09.585Z,1007
2022-08-18T04:13:26.041Z,1007
2022-08-18T04:14:42.241Z,1007
2022-08-18T04:15:58.432Z,1007.1
2022-08-18T04:17:14.320Z,1007
2022-08-18T04:18:29.822Z,1007.1
2022-08-18T04:19:45.710Z,1007.1
2022-08-18T04:21:02.000Z,1007
2022-08-18T04:22:18.386Z,1007.1
2022-08-18T04:23:34.559Z,1007.1
2022-08-18T04:24:50.762Z,1007.1
2022-08-18T04:26:06.945Z,1007.1
2022-08-18T04:27:22.837Z,1007.1
2022-08-18T04:28:39.019Z,1007.1
2022-08-18T04:29:55.508Z,1007.1
2022-08-18T04:31:11.396Z,1007.1
2022-08-18T04:32:27.873Z,1007.1
2022-08-18T04:33:44.067Z,1007.1
2022-08-18T04:34:58.972Z,1007
2022-08-18T04:36:15.451Z,1007
2022-08-18T04:37:31.347Z,1007.1
2022-08-18T04:38:47.823Z,1007.1
2022-08-18T04:40:04.028Z,1007.1
2022-08-18T04:41:19.919Z,1007.1
2022-08-18T04:42:36.102Z,1007
2022-08-18T04:43:52.000Z,1007
2022-08-18T04:45:08.778Z,1007.1
2022-08-18T04:46:24.960Z,1007
2022-08-18T04:47:41.141Z,1007
2022-08-18T04:48:57.327Z,1007.1
2022-08-18T04:50:13.229Z,1007.1
2022-08-18T04:51:28.714Z,1007
2022-08-18T04:52:44.913Z,1007
2022-08-18T04:54:00.818Z,1007.1
2022-08-18T04:55:16.988Z,1007.1
2022-08-18T04:56:33.183Z,1007.1
2022-08-18T04:57:49.379Z,1007.1
2022-08-18T04:59:05.810Z,1007.1
2022-08-18T05:00:21.740Z,1007.2
2022-08-18T05:01:38.192Z,1007.1
2022-08-18T05:02:54.107Z,1007.2
2022-08-18T05:04:10.572Z,1007.2
2022-08-18T05:05:26.498Z,1007.2
2022-08-18T05:06:42.687Z,1007.2
2022-08-18T05:07:58.145Z,1007.3
2022-08-18T05:09:14.329Z,1007.3
2022-08-18T05:10:30.513Z,1007.3
2022-08-18T05:11:46.713Z,1007.2
2022-08-18T05:13:02.631Z,1007.3
2022-08-18T05:14:19.091Z,1007.3
2022-08-18T05:15:35.275Z,1007.3
2022-08-18T05:16:51.465Z,1007.3
2022-08-18T05:18:07.643Z,1007.3
2022-08-18T05:19:23.836Z,1007.2
2022-08-18T05:20:40.027Z,1007.2
2022-08-18T05:21:55.948Z,1007.2
2022-08-18T05:23:12.117Z,1007.2
2022-08-18T05:24:27.607Z,1007.2
2022-08-18T05:25:43.508Z,1007.2
2022-08-18T05:26:59.970Z,1007.2
2022-08-18T05:28:16.165Z,1007.2
2022-08-18T05:29:32.078Z,1007.2
2022-08-18T05:30:48.541Z,1007.3
2022-08-18T05:32:04.453Z,1007.3
2022-08-18T05:33:20.650Z,1007.2
2022-08-18T05:34:37.106Z,1007.3
2022-08-18T05:35:53.294Z,1007.3
2022-08-18T05:37:09.479Z,1007.2
2022-08-18T05:38:25.384Z,1007.2
2022-08-18T05:39:41.846Z,1007.3
2022-08-18T05:40:56.776Z,1007.3
2022-08-18T05:42:13.245Z,1007.3
2022-08-18T05:43:29.427Z,1007.3
2022-08-18T05:44:45.335Z,1007.2
2022-08-18T05:46:01.813Z,1007.2
2022-08-18T05:47:17.987Z,1007.2
2022-08-18T05:48:33.913Z,1007.2
2022-08-18T05:49:50.362Z,1007.2
2022-08-18T05:52:22.722Z,1007.3
2022-08-18T05:53:38.924Z,1007.3
2022-08-18T05:54:55.127Z,1007.3
2022-08-18T05:56:11.296Z,1007.3
2022-08-18T05:57:26.497Z,1007.3
2022-08-18T05:58:42.679Z,1007.2
2022-08-18T05:59:58.880Z,1007.3
2022-08-18T06:01:15.079Z,1007.3
2022-08-18T06:02:31.248Z,1007.3
2022-08-18T06:03:47.445Z,1007.3
2022-08-18T06:05:02.658Z,1007.3
2022-08-18T06:06:18.850Z,1007.3
2022-08-18T06:07:35.020Z,1007.3
2022-08-18T06:08:51.219Z,1007.3
2022-08-18T06:10:07.405Z,1007.3
2022-08-18T06:11:23.581Z,1007.3
2022-08-18T06:12:39.771Z,1007.3
2022-08-18T06:13:55.967Z,1007.3
2022-08-18T06:15:12.152Z,1007.3
2022-08-18T06:16:28.336Z,1007.3
2022-08-18T06:17:44.525Z,1007.3
2022-08-18T06:19:00.693Z,1007.3
2022-08-18T06:20:16.902Z,1007.3
2022-08-18T06:21:32.099Z,1007.4
2022-08-18T06:22:48.290Z,1007.4
2022-08-18T06:24:04.474Z,1007.4
2022-08-18T06:25:20.663Z,1007.4
2022-08-18T06:26:36.852Z,1007.4
2022-08-18T06:27:53.039Z,1007.5
2022-08-18T06:29:09.244Z,1007.5
2022-08-18T06:30:25.394Z,1007.5
2022-08-18T06:31:41.611Z,1007.5
2022-08-18T06:32:57.793Z,1007.5
2022-08-18T06:34:13.974Z,1007.5
2022-08-18T06:35:30.173Z,1007.5
2022-08-18T06:36:46.359Z,1007.5
2022-08-18T06:38:01.563Z,1007.5
2022-08-18T06:39:17.758Z,1007.5
2022-08-18T06:40:33.947Z,1007.6
2022-08-18T06:41:50.118Z,1007.6
2022-08-18T06:43:06.320Z,1007.6
2022-08-18T06:44:22.491Z,1007.6
2022-08-18T06:45:38.692Z,1007.5
2022-08-18T06:46:54.846Z,1007.6
2022-08-18T06:48:11.069Z,1007.6
2022-08-18T06:49:27.231Z,1007.5
2022-08-18T06:50:43.424Z,1007.6
2022-08-18T06:51:59.629Z,1007.6
2022-08-18T06:53:15.789Z,1007.6
2022-08-18T06:54:31.014Z,1007.6
2022-08-18T06:55:47.194Z,1007.6
2022-08-18T06:57:03.378Z,1007.6
2022-08-18T06:58:19.581Z,1007.6
2022-08-18T06:59:35.769Z,1007.6
2022-08-18T07:00:51.924Z,1007.7
2022-08-18T07:02:08.148Z,1007.7
2022-08-18T07:03:24.313Z,1007.6
2022-08-18T07:04:40.484Z,1007.6
2022-08-18T07:05:56.712Z,1007.7
2022-08-18T07:07:12.895Z,1007.6
2022-08-18T07:08:29.075Z,1007.6
2022-08-18T07:09:45.257Z,1007.7
2022-08-18T07:11:00.475Z,1007.6
2022-08-18T07:12:16.633Z,1007.6
2022-08-18T07:13:32.814Z,1007.6
2022-08-18T07:14:49.033Z,1007.7
2022-08-18T07:16:05.221Z,1007.7
2022-08-18T07:17:21.403Z,1007.7
2022-08-18T07:18:37.599Z,1007.6
2022-08-18T07:19:53.751Z,1007.6
2022-08-18T07:21:09.964Z,1007.6
2022-08-18T07:22:26.149Z,1007.6
2022-08-18T07:23:42.326Z,1007.6
2022-08-18T07:24:58.525Z,1007.5
2022-08-18T07:26:14.687Z,1007.6
2022-08-18T07:27:29.902Z,1007.5
2022-08-18T07:28:46.120Z,1007.5
2022-08-18T07:30:02.299Z,1007.5
2022-08-18T07:31:18.483Z,1007.5
2022-08-18T07:32:34.673Z,1007.5
2022-08-18T07:33:50.858Z,1007.5
2022-08-18T07:35:07.029Z,1007.5
2022-08-18T07:36:23.229Z,1007.5
2022-08-18T07:37:39.430Z,1007.5
2022-08-18T07:38:55.616Z,1007.5
2022-08-18T07:40:11.792Z,1007.5
2022-08-18T07:41:27.991Z,1007.5
2022-08-18T07:42:44.152Z,1007.5
2022-08-18T07:43:59.385Z,1007.5
2022-08-18T07:45:15.539Z,1007.5
2022-08-18T07:46:31.717Z,1007.6
2022-08-18T07:47:47.935Z,1007.5
2022-08-18T07:49:04.131Z,1007.5
2022-08-18T07:50:20.285Z,1007.4
2022-08-18T07:51:36.474Z,1007.5
2022-08-18T07:52:52.685Z,1007.5
2022-08-18T07:54:08.883Z,1007.5
2022-08-18T07:55:25.061Z,1007.5
2022-08-18T07:56:41.257Z,1007.6
2022-08-18T07:57:57.397Z,1007.6
2022-08-18T07:59:13.620Z,1007.6
2022-08-18T08:00:28.841Z,1007.6
2022-08-18T08:01:45.024Z,1007.7
2022-08-18T08:03:01.215Z,1007.7
2022-08-18T08:04:17.400Z,1007.6
2022-08-18T08:05:33.549Z,1007.7
2022-08-18T08:06:49.765Z,1007.7
2022-08-18T08:08:05.958Z,1007.7
2022-08-18T08:09:22.142Z,1007.7
2022-08-18T08:10:38.331Z,1007.7
2022-08-18T08:11:54.482Z,1007.7
2022-08-18T08:13:10.664Z,1007.7
2022-08-18T08:14:26.905Z,1007.7
2022-08-18T08:15:43.076Z,1007.7
2022-08-18T08:16:58.280Z,1007.7
2022-08-18T08:18:14.482Z,1007.7
2022-08-18T08:19:30.670Z,1007.7
2022-08-18T08:20:46.818Z,1007.7
2022-08-18T08:22:03.037Z,1007.7
2022-08-18T08:23:19.229Z,1007.7
2022-08-18T08:24:35.409Z,1007.7
2022-08-18T08:25:51.596Z,1007.8
2022-08-18T08:27:07.791Z,1007.8
2022-08-18T08:28:23.932Z,1007.8
2022-08-18T08:29:40.129Z,1007.7
2022-08-18T08:30:56.361Z,1007.7
2022-08-18T08:32:12.546Z,1007.7
2022-08-18T08:33:27.713Z,1007.8
2022-08-18T08:34:43.947Z,1007.7
2022-08-18T08:36:00.136Z,1007.7
2022-08-18T08:37:16.315Z,1007.7
2022-08-18T08:38:32.515Z,1007.8
2022-08-18T08:39:48.696Z,1007.8
2022-08-18T08:41:04.839Z,1007.7
2022-08-18T08:42:21.036Z,1007.8
2022-08-18T08:43:37.219Z,1007.8
2022-08-18T08:44:53.408Z,1007.7
2022-08-18T08:46:09.631Z,1007.8
2022-08-18T08:47:25.835Z,1007.7
2022-08-18T08:48:42.011Z,1007.8
2022-08-18T08:49:57.215Z,1007.7
2022-08-18T08:51:13.377Z,1007.7
2022-08-18T08:52:29.607Z,1007.8
2022-08-18T08:53:45.799Z,1007.8
2022-08-18T08:55:01.981Z,1007.8
2022-08-18T08:56:18.125Z,1007.7
2022-08-18T08:57:34.369Z,1007.8
2022-08-18T08:58:50.503Z,1007.7
2022-08-18T09:00:06.741Z,1007.7
2022-08-18T09:01:22.870Z,1007.7
2022-08-18T09:02:39.076Z,1007.7
2022-08-18T09:03:55.314Z,1007.6
2022-08-18T09:05:11.500Z,1007.6
2022-08-18T09:06:26.693Z,1007.6
2022-08-18T09:07:42.840Z,1007.6
2022-08-18T09:08:59.038Z,1007.6
2022-08-18T09:10:15.265Z,1007.6
2022-08-18T09:11:31.453Z,1007.5
2022-08-18T09:12:47.641Z,1007.6
2022-08-18T09:14:03.792Z,1007.5
2022-08-18T09:15:20.024Z,1007.5
2022-08-18T09:16:36.165Z,1007.6
2022-08-18T09:17:52.394Z,1007.6
2022-08-18T09:19:08.592Z,1007.5
2022-08-18T09:20:24.735Z,1007.5
2022-08-18T09:21:40.915Z,1007.5
2022-08-18T09:22:56.173Z,1007.5
2022-08-18T09:24:12.363Z,1007.5
2022-08-18T09:25:28.559Z,1007.4
2022-08-18T09:26:44.734Z,1007.4
2022-08-18T09:28:00.934Z,1007.5
2022-08-18T09:29:17.127Z,1007.4
2022-08-18T09:30:33.305Z,1007.4
2022-08-18T09:31:49.491Z,1007.4
2022-08-18T09:33:05.634Z,1007.3
2022-08-18T09:34:21.886Z,1007.4
2022-08-18T09:35:38.069Z,1007.3
2022-08-18T09:36:54.200Z,1007.3
2022-08-18T09:38:10.436Z,1007.3
2022-08-18T09:39:25.659Z,1007.3
2022-08-18T09:40:41.828Z,1007.4
2022-08-18T09:41:57.970Z,1007.3
2022-08-18T09:43:14.226Z,1007.3
2022-08-18T09:44:30.409Z,1007.3
2022-08-18T09:45:46.599Z,1007.3
2022-08-18T09:47:02.719Z,1007.3
2022-08-18T09:48:18.979Z,1007.3
2022-08-18T09:49:35.163Z,1007.2
2022-08-18T09:50:51.355Z,1007.2
2022-08-18T09:52:07.541Z,1007.2
2022-08-18T09:53:23.667Z,1007.2
2022-08-18T09:54:39.863Z,1007.1
2022-08-18T09:55:55.132Z,1007.2
2022-08-18T09:57:11.325Z,1007.1
2022-08-18T09:58:27.504Z,1007.1
2022-08-18T09:59:43.697Z,1007.2
2022-08-18T10:00:59.813Z,1007.2
2022-08-18T10:02:16.070Z,1007.2
2022-08-18T10:03:32.266Z,1007.2
2022-08-18T10:04:48.448Z,1007.2
2022-08-18T10:06:04.577Z,1007.1
2022-08-18T10:07:20.770Z,1007.1
2022-08-18T10:08:37.007Z,1007.1
2022-08-18T10:09:53.150Z,1007.1
2022-08-18T10:11:09.331Z,1007
2022-08-18T10:12:24.548Z,1007.1
2022-08-18T10:13:40.792Z,1007
2022-08-18T10:14:56.918Z,1007
2022-08-18T10:16:13.167Z,1007
2022-08-18T10:17:29.358Z,1006.9
2022-08-18T10:18:45.537Z,1007
2022-08-18T10:20:00.703Z,1007
2022-08-18T10:21:16.947Z,1006.9
2022-08-18T10:22:33.142Z,1006.9
2022-08-18T10:23:49.000Z,1006.9
2022-08-18T10:25:05.511Z,1006.9
2022-08-18T10:26:21.694Z,1006.9
2022-08-18T10:27:37.885Z,1007
2022-08-18T10:28:54.076Z,1006.9
2022-08-18T10:30:10.216Z,1006.9
2022-08-18T10:31:26.454Z,1006.9
2022-08-18T10:32:42.658Z,1006.9
2022-08-18T10:33:58.830Z,1006.9
2022-08-18T10:35:15.029Z,1006.9
2022-08-18T10:36:30.165Z,1006.9
2022-08-18T10:37:46.358Z,1006.9
2022-08-18T10:39:02.621Z,1006.9
2022-08-18T10:40:18.797Z,1006.9
2022-08-18T10:41:34.994Z,1006.9
2022-08-18T10:42:51.188Z,1006.9
2022-08-18T10:44:07.375Z,1006.9
2022-08-18T10:45:23.487Z,1006.9
2022-08-18T10:46:39.759Z,1006.9
2022-08-18T10:47:55.929Z,1006.9
2022-08-18T10:49:12.131Z,1006.9
2022-08-18T10:50:28.311Z,1006.9
2022-08-18T10:51:44.515Z,1006.8
2022-08-18T10:52:59.649Z,1006.8
2022-08-18T10:54:15.894Z,1006.9
2022-08-18T10:55:32.093Z,1006.8
2022-08-18T10:56:48.276Z,1006.8
2022-08-18T10:58:04.402Z,1006.7
2022-08-18T10:59:20.657Z,1006.8
2022-08-18T11:00:36.854Z,1006.8
2022-08-18T11:01:53.040Z,1006.8
2022-08-18T11:03:09.231Z,1006.7
2022-08-18T11:04:25.354Z,1006.7
2022-08-18T11:05:41.534Z,1006.8
2022-08-18T11:06:57.799Z,1006.7
2022-08-18T11:08:13.987Z,1006.7
2022-08-18T11:09:29.184Z,1006.7
2022-08-18T11:10:45.302Z,1006.6
2022-08-18T11:12:01.570Z,1006.6
2022-08-18T11:13:17.763Z,1006.6
2022-08-18T11:14:33.871Z,1006.6
2022-08-18T11:15:50.136Z,1006.5
2022-08-18T11:17:06.327Z,1006.6
2022-08-18T11:18:22.436Z,1006.6
2022-08-18T11:19:38.710Z,1006.6
2022-08-18T11:20:54.821Z,1006.6
2022-08-18T11:22:11.095Z,1006.6
2022-08-18T11:23:27.189Z,1006.6
2022-08-18T11:24:43.470Z,1006.6
2022-08-18T11:25:58.678Z,1006.6
2022-08-18T11:27:14.778Z,1006.6
2022-08-18T11:28:31.061Z,1006.6
2022-08-18T11:29:47.244Z,1006.6
2022-08-18T11:31:03.350Z,1006.6
2022-08-18T11:32:19.618Z,1006.5
2022-08-18T11:33:35.723Z,1006.6
2022-08-18T11:34:51.992Z,1006.5
2022-08-18T11:36:08.185Z,1006.6
2022-08-18T11:37:24.370Z,1006.5
2022-08-18T11:38:40.492Z,1006.6
2022-08-18T11:39:56.667Z,1006.5
2022-08-18T11:41:12.952Z,1006.5
2022-08-18T11:42:28.060Z,1006.5
2022-08-18T11:43:44.331Z,1006.5
2022-08-18T11:45:00.524Z,1006.4
2022-08-18T11:46:16.722Z,1006.5
2022-08-18T11:47:32.903Z,1006.4
2022-08-18T11:48:49.093Z,1006.4
2022-08-18T11:50:05.293Z,1006.4
2022-08-18T11:51:21.398Z,1006.4
2022-08-18T11:52:37.591Z,1006.4
2022-08-18T11:53:53.764Z,1006.4
2022-08-18T11:55:10.042Z,1006.3
2022-08-18T11:56:26.224Z,1006.4
2022-08-18T11:57:42.421Z,1006.3
2022-08-18T11:58:57.630Z,1006.3
2022-08-18T12:00:13.826Z,1006.4
2022-08-18T12:01:29.933Z,1006.4
2022-08-18T12:02:46.194Z,1006.4
2022-08-18T12:04:02.305Z,1006.3
2022-08-18T12:05:18.482Z,1006.3
2022-08-18T12:06:34.766Z,1006.3
2022-08-18T12:07:50.959Z,1006.3
2022-08-18T12:09:07.052Z,1006.3
2022-08-18T12:10:23.335Z,1006.3
2022-08-18T12:11:39.534Z,1006.2
2022-08-18T12:12:55.707Z,1006.3
2022-08-18T12:14:11.903Z,1006.3
2022-08-18T12:15:27.017Z,1006.4
2022-08-18T12:16:43.214Z,1006.4
2022-08-18T12:17:59.399Z,1006.3
2022-08-18T12:19:15.671Z,1006.3
2022-08-18T12:20:31.869Z,1006.3
2022-08-18T12:21:48.064Z,1006.4
2022-08-18T12:23:04.254Z,1006.4
2022-08-18T12:24:20.352Z,1006.3
2022-08-18T12:25:36.632Z,1006.3
2022-08-18T12:26:52.818Z,1006.3
2022-08-18T12:28:08.995Z,1006.2
2022-08-18T12:29:25.197Z,1006.2
2022-08-18T12:30:41.291Z,1006.2
2022-08-18T12:31:56.499Z,1006.3
2022-08-18T12:33:12.686Z,1006.2
2022-08-18T12:34:28.970Z,1006.2
2022-08-18T12:35:45.150Z,1006.2
2022-08-18T12:37:01.356Z,1006.2
2022-08-18T12:38:17.536Z,1006.2
2022-08-18T12:39:33.635Z,1006.1
2022-08-18T12:40:49.923Z,1006
2022-08-18T12:42:06.097Z,1006
2022-08-18T12:43:22.204Z,1006
2022-08-18T12:44:38.392Z,1006
2022-08-18T12:45:54.682Z,1005.9
2022-08-18T12:47:10.763Z,1005.9
2022-08-18T12:48:26.058Z,1005.9
2022-08-18T12:49:42.157Z,1005.9
2022-08-18T12:50:58.454Z,1005.9
2022-08-18T12:52:14.548Z,1005.9
2022-08-18T12:53:30.720Z,1005.8
2022-08-18T12:54:46.910Z,1005.8
2022-08-18T12:56:03.211Z,1005.8
2022-08-18T12:57:19.389Z,1005.9
2022-08-18T12:58:35.582Z,1005.9
2022-08-18T12:59:51.771Z,1005.8
2022-08-18T13:01:07.967Z,1005.9
2022-08-18T13:02:24.062Z,1005.8
2022-08-18T13:03:40.337Z,1005.7
2022-08-18T13:04:55.554Z,1005.8
2022-08-18T13:06:11.645Z,1005.8
2022-08-18T13:07:27.926Z,1005.7
2022-08-18T13:08:44.020Z,1005.6
2022-08-18T13:10:00.217Z,1005.7
2022-08-18T13:11:16.504Z,1005.7
2022-08-18T13:12:32.682Z,1005.7
2022-08-18T13:13:48.887Z,1005.7
2022-08-18T13:15:05.064Z,1005.7
2022-08-18T13:16:21.252Z,1005.7
2022-08-18T13:17:37.448Z,1005.7
2022-08-18T13:18:53.632Z,1005.7
2022-08-18T13:20:09.829Z,1005.6
2022-08-18T13:21:24.935Z,1005.5
2022-08-18T13:22:41.216Z,1005.5
2022-08-18T13:23:57.409Z,1005.6
2022-08-18T13:25:13.497Z,1005.6
2022-08-18T13:26:29.781Z,1005.5
2022-08-18T13:27:45.878Z,1005.6
2022-08-18T13:29:02.170Z,1005.6
2022-08-18T13:30:18.350Z,1005.5
2022-08-18T13:31:34.541Z,1005.6
2022-08-18T13:32:50.747Z,1005.6
2022-08-18T13:34:06.929Z,1005.5
2022-08-18T13:35:23.010Z,1005.6
2022-08-18T13:36:39.304Z,1005.6
2022-08-18T13:37:54.521Z,1005.6
2022-08-18T13:39:10.703Z,1005.5
2022-08-18T13:40:26.881Z,1005.5
2022-08-18T13:41:43.082Z,1005.5
2022-08-18T13:42:59.266Z,1005.5
2022-08-18T13:44:15.451Z,1005.5
2022-08-18T13:45:31.648Z,1005.5
2022-08-18T13:46:47.721Z,1005.5
2022-08-18T13:48:04.025Z,1005.5
2022-08-18T13:49:20.218Z,1005.5
2022-08-18T13:50:36.304Z,1005.5
2022-08-18T13:51:52.482Z,1005.5
2022-08-18T13:53:08.667Z,1005.6
2022-08-18T13:54:23.991Z,1005.5
2022-08-18T13:55:40.066Z,1005.5
2022-08-18T13:56:56.363Z,1005.5
2022-08-18T13:58:12.557Z,1005.4
2022-08-18T13:59:28.746Z,1005.4
2022-08-18T14:00:44.933Z,1005.4
2022-08-18T14:02:01.132Z,1005.4
2022-08-18T14:03:17.202Z,1005.3
2022-08-18T14:04:33.402Z,1005.3
2022-08-18T14:05:49.703Z,1005.4
2022-08-18T14:07:05.889Z,1005.4
2022-08-18T14:08:22.077Z,1005.3
2022-08-18T14:09:38.265Z,1005.3
2022-08-18T14:10:53.353Z,1005.3
2022-08-18T14:12:09.540Z,1005.2
2022-08-18T14:13:25.853Z,1005.3
2022-08-18T14:14:42.032Z,1005.2
2022-08-18T14:15:58.229Z,1005.2
2022-08-18T14:17:14.417Z,1005.3
2022-08-18T14:18:30.487Z,1005.3
2022-08-18T14:19:46.799Z,1005.3
2022-08-18T14:21:02.975Z,1005.2
2022-08-18T14:22:19.168Z,1005.2
2022-08-18T14:23:35.249Z,1005.2
2022-08-18T14:24:51.548Z,1005.2
2022-08-18T14:26:07.732Z,1005.1
2022-08-18T14:27:22.938Z,1005.2
2022-08-18T14:28:39.014Z,1005.2
2022-08-18T14:29:55.321Z,1005.1
2022-08-18T14:31:11.516Z,1005.2
2022-08-18T14:32:27.710Z,1005.2
2022-08-18T14:33:43.900Z,1005.2
2022-08-18T14:34:59.112Z,1005.1
2022-08-18T14:36:15.288Z,1005.2
2022-08-18T14:37:31.367Z,1005.2
2022-08-18T14:38:47.678Z,1005.2
2022-08-18T14:40:03.865Z,1005.3
2022-08-18T14:41:20.058Z,1005.3
2022-08-18T14:42:36.238Z,1005.3
2022-08-18T14:43:52.419Z,1005.4
2022-08-18T14:45:08.611Z,1005.4
2022-08-18T14:46:24.677Z,1005.5
2022-08-18T14:47:41.001Z,1005.5
2022-08-18T14:48:57.055Z,1005.5
2022-08-18T14:50:13.242Z,1005.5
2022-08-18T14:51:28.579Z,1005.5
2022-08-18T14:52:44.760Z,1005.5
2022-08-18T14:54:00.828Z,1005.4
2022-08-18T14:55:17.139Z,1005.4
2022-08-18T14:56:33.346Z,1005.4
2022-08-18T14:57:49.529Z,1005.4
2022-08-18T14:59:05.709Z,1005.4
2022-08-18T15:00:21.897Z,1005.4
2022-08-18T15:01:37.974Z,1005.4
2022-08-18T15:02:54.277Z,1005.5
2022-08-18T15:04:10.341Z,1005.5
2022-08-18T15:05:26.659Z,1005.5
2022-08-18T15:06:42.857Z,1005.5
2022-08-18T15:07:58.055Z,1005.6
2022-08-18T15:09:14.244Z,1005.6
2022-08-18T15:10:30.438Z,1005.6
2022-08-18T15:11:46.496Z,1005.5
2022-08-18T15:13:02.807Z,1005.5
2022-08-18T15:14:19.004Z,1005.5
2022-08-18T15:15:35.075Z,1005.4
2022-08-18T15:16:51.386Z,1005.4
2022-08-18T15:18:07.453Z,1005.4
2022-08-18T15:19:23.638Z,1005.4
2022-08-18T15:20:39.955Z,1005.5
2022-08-18T15:21:56.147Z,1005.5
2022-08-18T15:23:12.325Z,1005.6
2022-08-18T15:24:27.538Z,1005.6
2022-08-18T15:25:43.728Z,1005.7
2022-08-18T15:26:59.787Z,1005.6
2022-08-18T15:28:16.094Z,1005.7
2022-08-18T15:29:32.297Z,1005.7
2022-08-18T15:30:48.473Z,1005.7
2022-08-18T15:32:04.549Z,1005.7
2022-08-18T15:33:20.860Z,1005.7
2022-08-18T15:34:36.926Z,1005.7
2022-08-18T15:35:53.245Z,1005.7
2022-08-18T15:37:09.428Z,1005.7
2022-08-18T15:38:25.494Z,1005.7
2022-08-18T15:39:41.809Z,1005.7
2022-08-18T15:40:56.880Z,1005.7
2022-08-18T15:42:13.192Z,1005.6
2022-08-18T15:43:29.391Z,1005.6
2022-08-18T15:44:45.451Z,1005.6
2022-08-18T15:46:01.763Z,1005.6
2022-08-18T15:47:17.965Z,1005.5
2022-08-18T15:48:34.013Z,1005.5
2022-08-18T15:49:50.211Z,1005.6
2022-08-18T15:51:06.519Z,1005.6
2022-08-18T15:52:22.577Z,1005.6
2022-08-18T15:53:38.761Z,1005.6